createdAt,value
2022-07-25T00:00:39.795Z,26.33
2022-07-25T00:03:06.185Z,26.32
2022-07-25T00:05:37.624Z,26.31
2022-07-25T00:07:58.948Z,26.33
2022-07-25T00:10:25.337Z,26.35
2022-07-25T00:12:51.710Z,26.33
2022-07-25T00:15:18.122Z,26.32
2022-07-25T00:17:44.497Z,26.34
2022-07-25T00:20:10.889Z,26.32
2022-07-25T00:22:37.269Z,26.33
2022-07-25T00:25:03.669Z,26.33
2022-07-25T00:27:30.052Z,26.34
2022-07-25T00:29:56.442Z,26.33
2022-07-25T00:32:22.823Z,26.31
2022-07-25T00:34:49.210Z,26.34
2022-07-25T00:37:15.618Z,26.32
2022-07-25T00:39:42.001Z,26.31
2022-07-25T00:42:08.385Z,26.32
2022-07-25T00:44:34.786Z,26.33
2022-07-25T00:47:01.161Z,26.32
2022-07-25T00:49:27.577Z,26.34
2022-07-25T00:51:53.977Z,26.33
2022-07-25T00:54:20.353Z,26.34
2022-07-25T00:56:48.061Z,26.34
2022-07-25T00:59:14.456Z,26.33
2022-07-25T01:01:39.681Z,26.34
2022-07-25T01:04:06.341Z,26.34
2022-07-25T01:06:32.411Z,26.35
2022-07-25T01:08:58.790Z,26.33
2022-07-25T01:11:25.208Z,26.33
2022-07-25T01:13:51.591Z,26.35
2022-07-25T01:16:18.061Z,26.34
2022-07-25T01:18:44.469Z,26.34
2022-07-25T01:21:10.879Z,26.34
2022-07-25T01:23:37.264Z,26.34
2022-07-25T01:26:03.735Z,26.36
2022-07-25T01:28:30.114Z,26.34
2022-07-25T01:30:56.522Z,26.34
2022-07-25T01:33:22.879Z,26.34
2022-07-25T01:35:49.262Z,26.34
2022-07-25T01:38:15.666Z,26.34
2022-07-25T01:40:42.173Z,26.34
2022-07-25T01:43:08.564Z,26.34
2022-07-25T01:45:34.951Z,26.34
2022-07-25T01:48:01.336Z,26.36
2022-07-25T01:50:27.728Z,26.35
2022-07-25T01:52:54.110Z,26.35
2022-07-25T01:55:20.496Z,26.36
2022-07-25T01:57:49.753Z,26.35
2022-07-25T02:00:13.274Z,26.36
2022-07-25T02:02:39.656Z,26.34
2022-07-25T02:05:06.139Z,26.35
2022-07-25T02:07:32.463Z,26.36
2022-07-25T02:09:58.872Z,26.40
2022-07-25T02:12:25.292Z,26.38
2022-07-25T02:14:51.675Z,26.36
2022-07-25T02:17:18.095Z,26.37
2022-07-25T02:19:44.453Z,26.37
2022-07-25T02:22:10.839Z,26.37
2022-07-25T02:24:37.243Z,26.37
2022-07-25T02:27:03.604Z,26.37
2022-07-25T02:29:30.027Z,26.37
2022-07-25T02:31:56.418Z,26.36
2022-07-25T02:34:22.865Z,26.36
2022-07-25T02:36:49.237Z,26.34
2022-07-25T02:39:15.619Z,26.36
2022-07-25T02:41:43.526Z,26.32
2022-07-25T02:44:08.763Z,26.33
2022-07-25T02:46:35.005Z,26.30
2022-07-25T02:49:01.375Z,26.31
2022-07-25T02:51:27.678Z,26.32
2022-07-25T02:53:57.910Z,26.29
2022-07-25T02:56:21.156Z,26.31
2022-07-25T02:58:46.828Z,26.29
2022-07-25T03:01:13.270Z,26.32
2022-07-25T03:03:39.647Z,26.32
2022-07-25T03:06:07.379Z,26.30
2022-07-25T03:08:32.444Z,26.28
2022-07-25T03:11:00.194Z,26.28
2022-07-25T03:13:25.176Z,26.29
2022-07-25T03:15:51.558Z,26.31
2022-07-25T03:18:17.947Z,26.28
2022-07-25T03:20:44.330Z,26.30
2022-07-25T03:23:11.907Z,26.35
2022-07-25T03:25:37.094Z,26.33
2022-07-25T03:28:03.480Z,26.31
2022-07-25T03:30:31.588Z,26.36
2022-07-25T03:32:56.280Z,26.35
2022-07-25T03:35:22.699Z,26.35
2022-07-25T03:37:49.089Z,26.36
2022-07-25T03:40:15.938Z,26.35
2022-07-25T03:42:41.854Z,26.37
2022-07-25T03:45:08.242Z,26.35
2022-07-25T03:47:34.631Z,26.35
2022-07-25T03:50:01.092Z,26.37
2022-07-25T03:52:27.484Z,26.35
2022-07-25T03:54:53.873Z,26.34
2022-07-25T03:57:20.260Z,26.38
2022-07-25T03:59:46.646Z,26.36
2022-07-25T04:02:13.133Z,26.40
2022-07-25T04:04:39.455Z,26.38
2022-07-25T04:07:05.835Z,26.36
2022-07-25T04:09:33.675Z,26.25
2022-07-25T04:11:58.601Z,26.09
2022-07-25T04:14:24.986Z,26.05
2022-07-25T04:16:51.502Z,26.03
2022-07-25T04:19:17.887Z,25.92
2022-07-25T04:21:44.251Z,25.87
2022-07-25T04:24:10.683Z,25.88
2022-07-25T04:26:37.052Z,25.89
2022-07-25T04:29:03.511Z,25.88
2022-07-25T04:31:29.919Z,25.92
2022-07-25T04:33:56.274Z,25.91
2022-07-25T04:36:22.727Z,25.83
2022-07-25T04:38:49.139Z,25.76
2022-07-25T04:41:15.519Z,25.68
2022-07-25T04:43:48.056Z,25.62
2022-07-25T04:46:08.353Z,25.45
2022-07-25T04:48:34.755Z,25.39
2022-07-25T04:51:01.069Z,25.26
2022-07-25T04:53:27.441Z,25.46
2022-07-25T04:55:53.831Z,25.32
2022-07-25T04:58:20.217Z,25.23
2022-07-25T05:00:46.628Z,25.20
2022-07-25T05:03:13.007Z,25.21
2022-07-25T05:05:39.399Z,25.14
2022-07-25T05:08:05.795Z,25.17
2022-07-25T05:10:32.193Z,25.13
2022-07-25T05:12:58.567Z,25.18
2022-07-25T05:15:24.965Z,25.28
2022-07-25T05:17:51.358Z,25.33
2022-07-25T05:20:17.764Z,25.32
2022-07-25T05:22:44.141Z,25.25
2022-07-25T05:25:10.536Z,25.20
2022-07-25T05:27:36.906Z,25.28
2022-07-25T05:30:03.294Z,25.26
2022-07-25T05:32:29.726Z,25.22
2022-07-25T05:34:56.111Z,25.35
2022-07-25T05:37:22.531Z,25.31
2022-07-25T05:39:48.914Z,25.30
2022-07-25T05:42:15.305Z,25.40
2022-07-25T05:44:41.819Z,25.47
2022-07-25T05:47:08.270Z,25.49
2022-07-25T05:49:34.597Z,25.58
2022-07-25T05:52:00.981Z,25.59
2022-07-25T05:54:27.558Z,25.56
2022-07-25T05:56:53.775Z,25.55
2022-07-25T05:59:20.168Z,25.53
2022-07-25T06:01:46.692Z,25.56
2022-07-25T06:04:12.933Z,25.53
2022-07-25T06:06:39.342Z,25.52
2022-07-25T06:09:08.052Z,25.48
2022-07-25T06:11:32.140Z,25.51
2022-07-25T06:13:58.528Z,25.47
2022-07-25T06:16:25.019Z,25.43
2022-07-25T06:18:51.380Z,25.50
2022-07-25T06:21:17.790Z,25.45
2022-07-25T06:23:45.808Z,25.48
2022-07-25T06:26:10.551Z,25.53
2022-07-25T06:28:36.937Z,25.55
2022-07-25T06:31:03.400Z,25.53
2022-07-25T06:33:29.741Z,25.53
2022-07-25T06:35:56.118Z,25.59
2022-07-25T06:38:22.509Z,25.63
2022-07-25T06:40:48.917Z,25.64
2022-07-25T06:43:15.311Z,25.63
2022-07-25T06:45:41.702Z,25.62
2022-07-25T06:48:08.119Z,25.58
2022-07-25T06:50:34.500Z,25.56
2022-07-25T06:53:00.884Z,25.51
2022-07-25T06:55:27.258Z,25.39
2022-07-25T06:57:53.736Z,25.39
2022-07-25T07:00:20.105Z,25.34
2022-07-25T07:02:46.503Z,25.23
2022-07-25T07:05:12.890Z,25.36
2022-07-25T07:07:40.682Z,25.32
2022-07-25T07:10:05.675Z,25.49
2022-07-25T07:12:32.115Z,25.51
2022-07-25T07:14:58.521Z,25.51
2022-07-25T07:17:24.910Z,25.56
2022-07-25T07:19:51.287Z,25.53
2022-07-25T07:22:17.682Z,25.61
2022-07-25T07:24:48.128Z,25.58
2022-07-25T07:27:10.489Z,25.53
2022-07-25T07:29:37.029Z,25.48
2022-07-25T07:32:03.553Z,25.61
2022-07-25T07:34:29.852Z,25.50
2022-07-25T07:36:57.204Z,25.51
2022-07-25T07:39:22.666Z,25.51
2022-07-25T07:41:49.058Z,25.36
2022-07-25T07:44:15.523Z,25.32
2022-07-25T07:46:43.053Z,25.24
2022-07-25T07:49:09.922Z,25.38
2022-07-25T07:51:35.774Z,25.35
2022-07-25T07:54:02.156Z,25.37
2022-07-25T07:56:28.570Z,25.40
2022-07-25T07:58:54.947Z,25.44
2022-07-25T08:01:21.434Z,25.40
2022-07-25T08:03:47.904Z,25.50
2022-07-25T08:06:14.292Z,25.54
2022-07-25T08:08:40.691Z,25.52
2022-07-25T08:11:07.080Z,25.55
2022-07-25T08:13:33.471Z,25.57
2022-07-25T08:15:59.979Z,25.63
2022-07-25T08:18:26.266Z,25.58
2022-07-25T08:20:52.661Z,25.54
2022-07-25T08:23:19.049Z,25.47
2022-07-25T08:25:45.532Z,25.46
2022-07-25T08:28:11.911Z,25.39
2022-07-25T08:30:38.305Z,25.39
2022-07-25T08:33:04.685Z,25.36
2022-07-25T08:35:31.103Z,25.21
2022-07-25T08:37:57.486Z,25.28
2022-07-25T08:40:23.922Z,25.34
2022-07-25T08:42:51.498Z,25.28
2022-07-25T08:45:16.693Z,25.24
2022-07-25T08:47:43.081Z,25.24
2022-07-25T08:50:09.470Z,25.26
2022-07-25T08:52:35.958Z,25.34
2022-07-25T08:55:02.368Z,25.32
2022-07-25T08:57:28.745Z,25.36
2022-07-25T08:59:55.225Z,25.42
2022-07-25T09:02:21.751Z,25.55
2022-07-25T09:04:47.987Z,25.51
2022-07-25T09:07:14.381Z,25.54
2022-07-25T09:09:40.765Z,25.44
2022-07-25T09:12:07.175Z,25.30
2022-07-25T09:14:33.560Z,25.24
2022-07-25T09:16:59.941Z,25.19
2022-07-25T09:19:26.327Z,25.16
2022-07-25T09:21:52.714Z,25.17
2022-07-25T09:24:19.106Z,25.20
2022-07-25T09:26:45.511Z,25.25
2022-07-25T09:29:16.145Z,25.29
2022-07-25T09:31:38.324Z,25.31
2022-07-25T09:34:04.925Z,25.05
2022-07-25T09:36:33.681Z,25.04
2022-07-25T09:38:57.515Z,25.16
2022-07-25T09:41:23.910Z,25.22
2022-07-25T09:43:50.298Z,25.11
2022-07-25T09:46:16.726Z,25.21
2022-07-25T09:48:43.131Z,25.20
2022-07-25T09:51:09.459Z,25.28
2022-07-25T09:53:35.856Z,25.36
2022-07-25T09:56:02.233Z,25.39
2022-07-25T09:58:28.630Z,25.32
2022-07-25T10:00:55.001Z,25.28
2022-07-25T10:03:21.405Z,25.24
2022-07-25T10:05:47.807Z,25.50
2022-07-25T10:08:14.260Z,25.42
2022-07-25T10:10:40.628Z,25.35
2022-07-25T10:13:10.618Z,25.11
2022-07-25T10:15:33.400Z,25.11
2022-07-25T10:17:59.793Z,25.06
2022-07-25T10:20:26.178Z,25.11
2022-07-25T10:22:57.007Z,24.92
2022-07-25T10:25:18.967Z,24.97
2022-07-25T10:27:45.361Z,24.93
2022-07-25T10:30:11.779Z,24.96
2022-07-25T10:32:38.170Z,24.90
2022-07-25T10:35:04.545Z,24.95
2022-07-25T10:37:30.955Z,24.91
2022-07-25T10:39:57.355Z,24.91
2022-07-25T10:42:23.829Z,24.85
2022-07-25T10:44:50.229Z,24.85
2022-07-25T10:47:16.745Z,24.97
2022-07-25T10:50:00.134Z,24.95
2022-07-25T10:52:09.564Z,24.89
2022-07-25T10:54:35.997Z,25.05
2022-07-25T10:57:02.399Z,25.11
2022-07-25T10:59:28.903Z,24.98
2022-07-25T11:01:55.369Z,25.15
2022-07-25T11:04:21.675Z,24.95
2022-07-25T11:06:48.087Z,24.97
2022-07-25T11:09:17.976Z,24.95
2022-07-25T11:11:40.866Z,24.92
2022-07-25T11:14:07.246Z,24.89
2022-07-25T11:16:33.709Z,24.92
2022-07-25T11:19:00.019Z,25.01
2022-07-25T11:21:26.418Z,25.01
2022-07-25T11:23:52.801Z,25.03
2022-07-25T11:26:19.189Z,25.01
2022-07-25T11:28:45.568Z,25.06
2022-07-25T11:31:11.954Z,25.21
2022-07-25T11:33:38.955Z,25.24
2022-07-25T11:36:04.754Z,25.21
2022-07-25T11:38:31.140Z,25.20
2022-07-25T11:40:57.550Z,25.29
2022-07-25T11:43:23.927Z,25.40
2022-07-25T11:45:50.340Z,25.47
2022-07-25T11:48:16.737Z,25.46
2022-07-25T11:50:43.147Z,25.57
2022-07-25T11:53:09.552Z,25.53
2022-07-25T11:55:35.936Z,25.47
2022-07-25T11:58:02.353Z,25.66
2022-07-25T12:00:28.814Z,25.62
2022-07-25T12:02:55.312Z,25.65
2022-07-25T12:05:21.641Z,25.68
2022-07-25T12:07:48.006Z,25.70
2022-07-25T12:10:14.403Z,25.72
2022-07-25T12:12:40.808Z,25.69
2022-07-25T12:15:07.371Z,25.67
2022-07-25T12:17:33.767Z,25.70
2022-07-25T12:20:00.152Z,25.69
2022-07-25T12:22:26.586Z,25.66
2022-07-25T12:24:53.007Z,25.67
2022-07-25T12:27:19.406Z,25.53
2022-07-25T12:29:45.787Z,25.54
2022-07-25T12:32:12.176Z,25.57
2022-07-25T12:34:38.605Z,25.56
2022-07-25T12:37:05.002Z,25.51
2022-07-25T12:39:31.425Z,25.49
2022-07-25T12:41:57.818Z,25.53
2022-07-25T12:44:24.194Z,25.60
2022-07-25T12:46:50.728Z,25.63
2022-07-25T12:49:17.315Z,25.58
2022-07-25T12:51:43.577Z,25.63
2022-07-25T12:54:10.266Z,25.66
2022-07-25T12:56:36.357Z,25.73
2022-07-25T12:59:02.901Z,25.75
2022-07-25T13:01:29.146Z,25.75
2022-07-25T13:03:55.529Z,25.75
2022-07-25T13:06:21.936Z,25.72
2022-07-25T13:08:48.314Z,25.78
2022-07-25T13:11:14.704Z,25.75
2022-07-25T13:13:41.084Z,25.69
2022-07-25T13:16:07.520Z,25.64
2022-07-25T13:18:33.875Z,25.65
2022-07-25T13:21:00.299Z,25.55
2022-07-25T13:23:26.668Z,25.61
2022-07-25T13:25:53.081Z,25.67
2022-07-25T13:28:19.499Z,25.63
2022-07-25T13:30:45.893Z,25.61
2022-07-25T13:33:12.296Z,25.62
2022-07-25T13:35:39.679Z,25.68
2022-07-25T13:38:05.160Z,25.62
2022-07-25T13:40:31.581Z,25.61
2022-07-25T13:42:58.285Z,25.65
2022-07-25T13:45:24.730Z,25.66
2022-07-25T13:48:12.249Z,25.60
2022-07-25T13:50:17.540Z,25.57
2022-07-25T13:52:43.960Z,25.61
2022-07-25T13:55:10.362Z,25.62
2022-07-25T13:57:36.749Z,25.59
2022-07-25T14:00:03.163Z,25.60
2022-07-25T14:02:29.629Z,25.57
2022-07-25T14:04:57.204Z,25.55
2022-07-25T14:07:22.352Z,25.58
2022-07-25T14:09:48.751Z,25.55
2022-07-25T14:12:15.189Z,25.53
2022-07-25T14:14:41.588Z,25.55
2022-07-25T14:17:08.165Z,25.54
2022-07-25T14:19:34.390Z,25.56
2022-07-25T14:22:00.778Z,25.57
2022-07-25T14:24:27.168Z,25.51
2022-07-25T14:26:53.621Z,25.50
2022-07-25T14:29:19.998Z,25.50
2022-07-25T14:31:46.435Z,25.47
2022-07-25T14:34:12.781Z,25.39
2022-07-25T14:36:39.159Z,25.34
2022-07-25T14:39:05.910Z,25.34
2022-07-25T14:41:31.949Z,25.31
2022-07-25T14:43:58.350Z,25.24
2022-07-25T14:46:24.762Z,25.26
2022-07-25T14:48:51.236Z,25.26
2022-07-25T14:51:17.562Z,25.21
2022-07-25T14:53:47.782Z,25.18
2022-07-25T14:56:11.424Z,25.16
2022-07-25T14:58:37.804Z,25.16
2022-07-25T15:01:04.259Z,25.17
2022-07-25T15:03:30.637Z,25.14
2022-07-25T15:05:57.013Z,25.14
2022-07-25T15:08:23.402Z,25.15
2022-07-25T15:10:49.820Z,25.19
2022-07-25T15:13:32.431Z,25.22
2022-07-25T15:15:42.604Z,25.20
2022-07-25T15:18:13.683Z,25.22
2022-07-25T15:20:35.439Z,25.24
2022-07-25T15:23:01.954Z,25.24
2022-07-25T15:25:59.946Z,25.37
2022-07-25T15:27:54.752Z,25.36
2022-07-25T15:30:24.715Z,25.24
2022-07-25T15:32:47.624Z,25.26
2022-07-25T15:35:14.025Z,25.27
2022-07-25T15:37:40.422Z,25.25
2022-07-25T15:40:07.054Z,25.23
2022-07-25T15:42:33.441Z,25.26
2022-07-25T15:45:30.224Z,25.25
2022-07-25T15:47:26.218Z,25.30
2022-07-25T15:49:52.629Z,25.32
2022-07-25T15:52:19.023Z,25.28
2022-07-25T15:54:45.402Z,25.26
2022-07-25T15:57:11.788Z,25.25
2022-07-25T15:59:38.166Z,25.22
2022-07-25T16:02:04.553Z,25.20
2022-07-25T16:04:30.945Z,25.16
2022-07-25T16:06:57.334Z,25.17
2022-07-25T16:09:23.718Z,25.16
2022-07-25T16:11:50.101Z,25.15
2022-07-25T16:14:16.481Z,25.13
2022-07-25T16:16:42.913Z,25.11
2022-07-25T16:19:09.773Z,25.10
2022-07-25T16:21:35.711Z,25.10
2022-07-25T16:24:02.123Z,25.12
2022-07-25T16:26:28.504Z,25.16
2022-07-25T16:28:57.603Z,25.18
2022-07-25T16:31:21.582Z,25.19
2022-07-25T16:33:47.914Z,25.17
2022-07-25T16:36:14.290Z,25.21
2022-07-25T16:38:40.676Z,25.22
2022-07-25T16:41:07.052Z,25.24
2022-07-25T16:43:33.429Z,25.26
2022-07-25T16:45:59.834Z,25.26
2022-07-25T16:48:26.250Z,25.23
2022-07-25T16:50:52.609Z,25.32
2022-07-25T16:53:18.989Z,25.35
2022-07-25T16:55:45.470Z,25.38
2022-07-25T16:58:11.853Z,25.39
2022-07-25T17:00:38.232Z,25.38
2022-07-25T17:03:04.616Z,25.38
2022-07-25T17:05:32.202Z,25.40
2022-07-25T17:07:59.663Z,25.33
2022-07-25T17:10:23.777Z,25.35
2022-07-25T17:12:50.155Z,25.34
2022-07-25T17:15:16.629Z,25.35
2022-07-25T17:17:43.013Z,25.34
2022-07-25T17:20:09.492Z,25.34
2022-07-25T17:22:35.915Z,25.34
2022-07-25T17:25:02.304Z,25.37
2022-07-25T17:27:28.694Z,25.40
2022-07-25T17:29:55.111Z,25.43
2022-07-25T17:32:24.955Z,25.42
2022-07-25T17:34:49.071Z,25.43
2022-07-25T17:37:15.591Z,25.42
2022-07-25T17:39:40.636Z,25.43
2022-07-25T17:42:07.017Z,25.39
2022-07-25T17:44:33.422Z,25.36
2022-07-25T17:46:59.841Z,25.35
2022-07-25T17:49:26.245Z,25.34
2022-07-25T17:51:52.581Z,25.33
2022-07-25T17:54:18.953Z,25.30
2022-07-25T17:56:45.395Z,25.19
2022-07-25T17:59:11.798Z,25.17
2022-07-25T18:01:38.183Z,25.15
2022-07-25T18:04:04.839Z,25.23
2022-07-25T18:06:30.929Z,25.36
2022-07-25T18:08:57.348Z,25.41
2022-07-25T18:11:23.772Z,25.42
2022-07-25T18:13:50.171Z,25.44
2022-07-25T18:16:16.645Z,25.48
2022-07-25T18:18:42.944Z,25.50
2022-07-25T18:21:09.321Z,25.52
2022-07-25T18:23:35.708Z,25.56
2022-07-25T18:26:02.088Z,25.58
2022-07-25T18:28:28.475Z,25.60
2022-07-25T18:30:54.947Z,25.59
2022-07-25T18:33:21.238Z,25.61
2022-07-25T18:35:47.613Z,25.61
2022-07-25T18:38:13.992Z,25.63
2022-07-25T18:40:40.377Z,25.65
2022-07-25T18:43:08.974Z,25.64
2022-07-25T18:45:33.147Z,25.66
2022-07-25T18:47:59.533Z,25.67
2022-07-25T18:50:25.919Z,25.68
2022-07-25T18:52:53.955Z,25.71
2022-07-25T18:55:18.753Z,25.71
2022-07-25T18:57:45.215Z,25.73
2022-07-25T19:00:11.595Z,25.74
2022-07-25T19:02:38.007Z,25.76
2022-07-25T19:05:04.541Z,25.78
2022-07-25T19:07:30.887Z,25.82
2022-07-25T19:09:57.363Z,25.82
2022-07-25T19:12:23.762Z,25.82
2022-07-25T19:14:50.198Z,25.81
2022-07-25T19:17:16.612Z,25.83
2022-07-25T19:19:42.996Z,25.84
2022-07-25T19:22:09.391Z,25.87
2022-07-25T19:24:35.773Z,25.88
2022-07-25T19:27:02.184Z,25.90
2022-07-25T19:29:28.590Z,25.93
2022-07-25T19:31:54.976Z,25.93
2022-07-25T19:34:21.360Z,25.95
2022-07-25T19:36:47.756Z,25.96
2022-07-25T19:39:14.129Z,25.97
2022-07-25T19:41:44.771Z,25.99
2022-07-25T19:44:07.338Z,26.00
2022-07-25T19:46:33.500Z,26.00
2022-07-25T19:48:59.788Z,25.99
2022-07-25T19:51:26.135Z,26.00
2022-07-25T19:53:54.211Z,26.00
2022-07-25T19:56:18.931Z,26.01
2022-07-25T19:58:45.309Z,26.01
2022-07-25T20:01:11.764Z,26.03
2022-07-25T20:03:38.176Z,26.05
2022-07-25T20:06:08.119Z,26.04
2022-07-25T20:08:30.940Z,26.05
2022-07-25T20:10:57.313Z,26.06
2022-07-25T20:13:23.700Z,26.08
2022-07-25T20:15:52.966Z,26.06
2022-07-25T20:18:19.863Z,26.07
2022-07-25T20:20:45.740Z,26.07
2022-07-25T20:23:12.120Z,26.09
2022-07-25T20:25:38.505Z,26.08
2022-07-25T20:28:04.914Z,26.07
2022-07-25T20:30:34.826Z,26.10
2022-07-25T20:32:58.952Z,26.11
2022-07-25T20:35:24.127Z,26.10
2022-07-25T20:37:50.502Z,26.11
2022-07-25T20:40:16.891Z,26.11
2022-07-25T20:42:43.266Z,26.14
2022-07-25T20:45:11.319Z,26.13
2022-07-25T20:47:36.047Z,26.13
2022-07-25T20:50:02.446Z,26.11
2022-07-25T20:52:28.799Z,26.14
2022-07-25T20:54:55.186Z,26.13
2022-07-25T20:57:21.566Z,26.12
2022-07-25T20:59:47.950Z,26.11
2022-07-25T21:02:14.428Z,26.13
2022-07-25T21:04:40.731Z,26.14
2022-07-25T21:07:07.137Z,26.16
2022-07-25T21:09:33.498Z,26.15
2022-07-25T21:11:59.954Z,26.15
2022-07-25T21:14:26.344Z,26.17
2022-07-25T21:16:52.873Z,26.15
2022-07-25T21:19:19.213Z,26.16
2022-07-25T21:21:45.598Z,26.17
2022-07-25T21:24:11.986Z,26.17
2022-07-25T21:26:38.363Z,26.18
2022-07-25T21:29:05.007Z,26.20
2022-07-25T21:31:31.238Z,26.20
2022-07-25T21:33:57.569Z,26.19
2022-07-25T21:36:23.982Z,26.20
2022-07-25T21:38:50.405Z,26.20
2022-07-25T21:41:16.768Z,26.19
2022-07-25T21:43:43.151Z,26.21
2022-07-25T21:46:09.653Z,26.20
2022-07-25T21:48:35.958Z,26.21
2022-07-25T21:51:02.368Z,26.22
2022-07-25T21:53:28.812Z,26.21
2022-07-25T21:55:55.203Z,26.22
2022-07-25T21:58:21.582Z,26.21
2022-07-25T22:00:47.969Z,26.22
2022-07-25T22:03:14.354Z,26.21
2022-07-25T22:05:40.739Z,26.22
2022-07-25T22:08:07.129Z,26.23
2022-07-25T22:10:33.554Z,26.23
2022-07-25T22:12:59.928Z,26.22
2022-07-25T22:15:26.318Z,26.22
2022-07-25T22:17:52.755Z,26.23
2022-07-25T22:20:19.149Z,26.23
2022-07-25T22:22:45.599Z,26.21
2022-07-25T22:25:11.960Z,26.22
2022-07-25T22:27:38.367Z,26.24
2022-07-25T22:30:07.539Z,26.23
2022-07-25T22:32:33.921Z,26.22
2022-07-25T22:35:00.321Z,26.23
2022-07-25T22:37:26.711Z,26.23
2022-07-25T22:39:56.528Z,26.24
2022-07-25T22:42:19.510Z,26.23
2022-07-25T22:44:45.855Z,26.24
2022-07-25T22:47:12.247Z,26.23
2022-07-25T22:49:38.638Z,26.23
2022-07-25T22:52:05.024Z,26.24
2022-07-25T22:54:31.447Z,26.24
2022-07-25T22:56:57.794Z,26.22
2022-07-25T22:59:24.182Z,26.22
2022-07-25T23:01:50.566Z,26.23
2022-07-25T23:04:17.050Z,26.22
2022-07-25T23:06:43.435Z,26.22
2022-07-25T23:09:10.278Z,26.22
2022-07-25T23:11:36.156Z,26.22
2022-07-25T23:14:02.544Z,26.22
2022-07-25T23:16:28.954Z,26.23
2022-07-25T23:18:55.335Z,26.21
2022-07-25T23:21:21.753Z,26.24
2022-07-25T23:23:49.079Z,26.22
2022-07-25T23:26:14.523Z,26.22
2022-07-25T23:28:40.924Z,26.20
2022-07-25T23:31:07.349Z,26.22
2022-07-25T23:33:33.703Z,26.23
2022-07-25T23:36:00.097Z,26.22
2022-07-25T23:38:26.471Z,26.21
2022-07-25T23:40:53.834Z,26.22
2022-07-25T23:43:52.192Z,26.22
2022-07-25T23:45:45.634Z,26.22
2022-07-25T23:48:12.049Z,26.21
2022-07-25T23:50:38.429Z,26.23
2022-07-25T23:53:04.840Z,26.23
2022-07-25T23:55:31.218Z,26.22
2022-07-25T23:57:57.609Z,26.21
